Time;durP1;ratioP1;P1;durP2;ratioP2;P2;SDS_P1;SDS_P2;PMS_P1;PMS_P2;Temp;Humidity;BMP_temperature;BMP_pressure;BME280_temperature;BME280_humidity;BME280_pressure;Samples;Min_cycle;Max_cycle;Signal;HPM_P1;HPM_P2
2023/08/26 00:01:40;;;;;;;16.13;9.68;;;;;;;26.57;41.10;94293.56;4938305;29;20035;-83
2023/08/26 00:04:06;;;;;;;15.98;9.60;;;;;;;26.51;40.70;94293.91;4955914;29;20173;-83
2023/08/26 00:06:32;;;;;;;14.60;9.15;;;;;;;26.48;40.88;94291.19;4938846;29;20460;-82
2023/08/26 00:08:57;;;;;;;19.08;10.15;;;;;;;26.56;40.99;94292.78;4938677;29;20039;-82
2023/08/26 00:11:23;;;;;;;15.65;9.70;;;;;;;26.55;40.85;94285.88;4938723;29;20135;-83
2023/08/26 00:13:49;;;;;;;17.27;10.35;;;;;;;26.52;40.94;94282.00;4938135;29;20035;-82
2023/08/26 00:16:14;;;;;;;16.13;10.30;;;;;;;26.45;40.94;94271.19;4938713;29;20581;-82
2023/08/26 00:18:40;;;;;;;13.23;10.30;;;;;;;26.47;40.37;94260.09;4938558;29;20448;-83
2023/08/26 00:21:05;;;;;;;13.52;9.70;;;;;;;26.49;40.63;94250.53;4955635;29;20038;-83
2023/08/26 00:23:33;;;;;;;15.88;10.10;;;;;;;26.62;40.54;94253.69;4938451;29;20035;-83
2023/08/26 00:26:00;;;;;;;16.33;10.50;;;;;;;26.72;39.89;94256.81;4955533;29;20043;-83
2023/08/26 00:28:26;;;;;;;13.88;9.77;;;;;;;26.57;40.52;94256.72;4955448;29;20046;-82
2023/08/26 00:30:59;;;;;;;27.20;10.52;;;;;;;26.47;40.57;94266.25;4938248;29;20047;-83
2023/08/26 00:33:25;;;;;;;17.83;10.65;;;;;;;26.34;40.89;94246.19;4937997;29;20032;-82
2023/08/26 00:35:50;;;;;;;14.15;10.20;;;;;;;26.21;41.17;94251.06;4938165;29;20113;-83
2023/08/26 00:38:15;;;;;;;13.10;9.50;;;;;;;26.06;41.75;94242.09;4938326;29;20031;-83
2023/08/26 00:40:41;;;;;;;13.75;10.30;;;;;;;25.90;42.22;94253.06;4955401;29;20047;-83
2023/08/26 00:43:08;;;;;;;17.00;10.05;;;;;;;25.73;42.58;94247.16;4937955;29;20035;-83
2023/08/26 00:45:34;;;;;;;14.68;10.23;;;;;;;25.85;41.94;94246.09;4955625;29;20054;-83
2023/08/26 00:48:00;;;;;;;18.27;10.48;;;;;;;25.89;42.11;94251.53;4938161;29;20031;-83
2023/08/26 00:50:26;;;;;;;13.27;9.40;;;;;;;25.75;42.06;94244.88;4938353;29;20039;-83
2023/08/26 00:52:52;;;;;;;15.73;9.95;;;;;;;25.62;43.03;94244.38;4938414;29;20090;-83
2023/08/26 00:55:18;;;;;;;14.68;10.02;;;;;;;25.43;43.48;94242.59;4938135;29;20086;-82
2023/08/26 00:57:44;;;;;;;17.63;10.30;;;;;;;25.35;42.96;94238.25;4937929;29;20035;-83
2023/08/26 01:00:10;;;;;;;12.90;10.18;;;;;;;24.83;45.53;94234.19;4935220;29;20069;-82
2023/08/26 01:02:35;;;;;;;18.77;10.20;;;;;;;25.23;43.41;94231.25;4935718;29;20032;-82
2023/08/26 01:05:02;;;;;;;17.13;10.55;;;;;;;25.26;43.45;94227.81;4936190;29;20044;-82
2023/08/26 01:07:28;;;;;;;13.38;10.00;;;;;;;25.19;43.88;94225.84;4922822;29;20083;-83
2023/08/26 01:09:54;;;;;;;22.73;10.57;;;;;;;25.39;43.35;94220.31;4922609;29;20082;-83
2023/08/26 01:12:33;;;;;;;14.40;10.35;;;;;;;25.71;42.31;94219.13;4922475;29;20505;-82
2023/08/26 01:15:05;;;;;;;15.40;9.80;;;;;;;25.66;42.42;94221.03;4922165;29;20031;-83
2023/08/26 01:17:31;;;;;;;12.63;9.82;;;;;;;25.75;42.56;94214.56;4939457;29;20047;-82
2023/08/26 01:19:59;;;;;;;16.02;9.90;;;;;;;25.69;42.89;94216.84;4922008;29;20035;-83
2023/08/26 01:22:27;;;;;;;13.95;9.75;;;;;;;25.77;42.42;94207.72;4906755;29;20115;-83
2023/08/26 01:24:52;;;;;;;12.75;9.93;;;;;;;25.66;42.59;94212.97;4922127;29;20093;-83
2023/08/26 01:27:18;;;;;;;12.20;9.82;;;;;;;25.62;42.74;94214.84;4922255;29;20043;-83
2023/08/26 01:29:43;;;;;;;15.90;9.63;;;;;;;25.62;42.42;94212.16;4922263;29;20042;-83
2023/08/26 01:32:09;;;;;;;12.93;9.80;;;;;;;25.53;43.02;94199.03;4921913;29;20389;-83
2023/08/26 01:34:36;;;;;;;11.85;9.27;;;;;;;25.47;43.21;94192.44;4939014;29;20035;-83
2023/08/26 01:37:02;;;;;;;16.92;9.63;;;;;;;25.32;44.47;94188.06;4921751;29;20594;-83
2023/08/26 01:39:27;;;;;;;12.45;10.20;;;;;;;24.65;45.98;94191.03;4921799;29;20434;-83
2023/08/26 01:41:53;;;;;;;15.18;9.90;;;;;;;24.69;45.16;94186.53;4922526;29;20031;-83
2023/08/26 01:44:19;;;;;;;18.35;10.27;;;;;;;24.48;46.52;94184.31;4953321;29;20400;-83
2023/08/26 01:46:45;;;;;;;12.98;10.00;;;;;;;24.62;46.38;94181.06;4960840;29;20449;-83
2023/08/26 01:49:11;;;;;;;16.58;9.88;;;;;;;24.25;46.92;94184.38;4943588;29;20349;-82
2023/08/26 01:51:36;;;;;;;15.73;10.32;;;;;;;24.38;46.48;94175.00;4943469;29;20034;-83
2023/08/26 01:54:03;;;;;;;13.00;10.35;;;;;;;24.34;46.35;94171.50;4943703;29;20452;-82
2023/08/26 01:56:29;;;;;;;14.13;9.90;;;;;;;24.50;45.81;94163.31;4943596;29;20035;-83
2023/08/26 01:58:54;;;;;;;16.52;11.10;;;;;;;24.55;45.84;94171.03;4942706;29;20106;-83
2023/08/26 02:01:20;;;;;;;17.35;10.52;;;;;;;24.66;45.84;94168.47;4959331;29;20046;-83
2023/08/26 02:03:45;;;;;;;17.90;9.88;;;;;;;24.90;45.17;94168.44;4942212;29;20089;-83
2023/08/26 02:06:11;;;;;;;15.60;9.73;;;;;;;25.07;44.96;94183.97;4937558;29;20098;-83
2023/08/26 02:08:36;;;;;;;16.00;9.85;;;;;;;25.21;44.65;94175.31;4942197;29;20111;-83
2023/08/26 02:11:01;;;;;;;12.60;9.10;;;;;;;25.24;44.32;94177.25;4942778;29;20126;-83
2023/08/26 02:13:27;;;;;;;14.32;10.55;;;;;;;25.17;44.73;94168.34;4960359;29;20039;-82
2023/08/26 02:15:54;;;;;;;12.00;9.45;;;;;;;25.17;44.77;94177.19;4960523;29;20345;-82
2023/08/26 02:18:20;;;;;;;13.20;9.55;;;;;;;24.99;45.21;94174.28;4941982;29;20031;-83
2023/08/26 02:20:45;;;;;;;13.50;10.05;;;;;;;25.08;44.92;94169.44;4960330;29;20046;-83
2023/08/26 02:23:11;;;;;;;16.30;10.18;;;;;;;25.20;44.50;94165.72;4943000;29;20108;-82
2023/08/26 02:25:38;;;;;;;14.07;9.98;;;;;;;25.23;44.34;94169.59;4943165;29;20043;-83
2023/08/26 02:28:04;;;;;;;15.82;9.57;;;;;;;25.22;44.30;94162.69;4942989;29;20073;-83
2023/08/26 02:30:29;;;;;;;16.92;9.82;;;;;;;25.21;44.82;94169.94;4942669;29;20039;-82
2023/08/26 02:32:55;;;;;;;15.20;9.55;;;;;;;25.15;44.58;94170.63;4942830;29;20074;-83
2023/08/26 02:35:20;;;;;;;16.95;9.07;;;;;;;25.10;45.09;94163.69;4943048;29;20043;-83
2023/08/26 02:37:46;;;;;;;12.70;9.48;;;;;;;25.04;45.21;94173.19;4942508;29;20433;-83
2023/08/26 02:40:11;;;;;;;14.48;9.60;;;;;;;24.98;45.26;94162.81;4926614;29;20045;-83
2023/08/26 02:42:36;;;;;;;12.48;9.35;;;;;;;24.96;45.43;94169.66;4951782;29;20032;-83
2023/08/26 02:45:03;;;;;;;11.82;9.43;;;;;;;25.06;45.02;94166.34;4923698;29;20420;-83
2023/08/26 02:47:28;;;;;;;13.20;9.85;;;;;;;25.14;45.29;94164.50;4933732;29;20125;-83
2023/08/26 02:49:54;;;;;;;16.90;9.85;;;;;;;25.20;45.14;94163.03;4942364;29;20121;-83
2023/08/26 02:52:19;;;;;;;17.60;9.73;;;;;;;25.08;45.60;94161.38;4959539;29;20449;-83
2023/08/26 02:54:45;;;;;;;13.02;9.43;;;;;;;25.03;45.45;94155.56;4942245;29;20150;-82
2023/08/26 02:57:11;;;;;;;12.07;9.05;;;;;;;24.94;46.08;94161.97;4926673;29;20040;-83
2023/08/26 02:59:36;;;;;;;11.80;8.98;;;;;;;24.97;45.80;94163.94;4959638;29;20114;-83
2023/08/26 03:02:03;;;;;;;16.40;9.48;;;;;;;25.01;46.04;94166.66;4942338;29;20049;-83
2023/08/26 03:04:29;;;;;;;14.10;9.65;;;;;;;25.05;45.97;94175.53;4942050;29;20031;-82
2023/08/26 03:06:55;;;;;;;14.27;9.60;;;;;;;25.09;46.02;94179.00;4942107;29;20046;-82
2023/08/26 03:09:21;;;;;;;13.80;8.57;;;;;;;25.05;46.02;94188.13;4942341;29;20043;-83
2023/08/26 03:11:46;;;;;;;15.27;9.73;;;;;;;24.95;46.01;94187.63;4941605;29;20039;-82
2023/08/26 03:14:11;;;;;;;12.93;9.48;;;;;;;24.80;46.71;94180.56;4925945;29;20045;-82
2023/08/26 03:16:37;;;;;;;11.65;9.23;;;;;;;24.69;47.41;94189.22;4942191;29;20457;-83
2023/08/26 03:19:02;;;;;;;16.13;8.98;;;;;;;24.67;47.35;94188.78;4942021;29;20065;-83
2023/08/26 03:21:29;;;;;;;15.00;9.82;;;;;;;24.59;47.51;94184.47;4942200;29;20118;-83
2023/08/26 03:23:55;;;;;;;12.63;9.25;;;;;;;24.58;47.77;94188.28;4942213;29;20472;-83
2023/08/26 03:26:20;;;;;;;11.55;9.63;;;;;;;24.63;47.97;94189.88;4942061;29;20043;-83
2023/08/26 03:28:46;;;;;;;15.75;9.65;;;;;;;24.81;47.43;94190.91;4941338;29;20126;-82
2023/08/26 03:31:11;;;;;;;14.68;8.98;;;;;;;24.95;46.75;94195.66;4959037;29;20445;-83
2023/08/26 03:33:36;;;;;;;13.35;9.52;;;;;;;25.17;46.02;94195.16;4941782;29;20460;-82
2023/08/26 03:36:05;;;;;;;16.48;9.13;;;;;;;25.44;45.86;94195.06;4958876;29;20101;-82
2023/08/26 03:38:32;;;;;;;14.30;8.90;;;;;;;25.50;45.88;94194.41;4941797;29;20039;-82
2023/08/26 03:40:57;;;;;;;13.85;9.82;;;;;;;25.45;45.60;94192.03;4941916;29;20093;-82
2023/08/26 03:43:23;;;;;;;13.88;8.80;;;;;;;25.34;46.37;94196.50;4958913;29;20121;-82
2023/08/26 03:45:48;;;;;;;15.48;9.50;;;;;;;25.41;45.64;94205.41;4941646;29;20043;-82
2023/08/26 03:48:14;;;;;;;11.77;9.00;;;;;;;25.31;46.03;94200.69;4941609;29;20165;-82
2023/08/26 03:50:52;;;;;;;12.43;8.57;;;;;;;25.30;45.73;94212.53;4941230;29;20109;-83
2023/08/26 03:53:17;;;;;;;12.70;9.27;;;;;;;25.62;44.92;94196.06;4941493;29;20117;-83
2023/08/26 03:55:44;;;;;;;11.85;8.35;;;;;;;25.35;46.20;94200.72;4958694;29;20035;-82
2023/08/26 03:58:09;;;;;;;15.10;8.90;;;;;;;25.26;45.89;94207.16;4940734;29;20118;-82
2023/08/26 04:00:35;;;;;;;13.45;8.68;;;;;;;25.54;44.99;94197.91;4941135;29;20437;-82
2023/08/26 04:03:01;;;;;;;15.07;8.80;;;;;;;25.76;44.44;94195.44;4941137;29;20042;-82
2023/08/26 04:05:26;;;;;;;20.85;8.18;;;;;;;25.86;44.36;94201.28;4957568;29;20405;-83
2023/08/26 04:07:51;;;;;;;14.50;8.70;;;;;;;25.86;44.40;94198.59;4941197;29;20049;-82
2023/08/26 04:10:17;;;;;;;13.50;8.50;;;;;;;25.81;44.13;94195.09;4941379;29;20035;-82
2023/08/26 04:12:42;;;;;;;14.40;8.15;;;;;;;25.81;44.08;94197.78;4941430;29;20039;-82
2023/08/26 04:15:08;;;;;;;13.05;8.50;;;;;;;25.86;44.36;94201.28;4941215;29;20086;-82
2023/08/26 04:17:34;;;;;;;16.25;8.20;;;;;;;25.65;44.87;94200.69;4941237;29;20353;-82
2023/08/26 04:19:59;;;;;;;11.70;8.30;;;;;;;25.55;44.86;94199.47;4958448;29;20039;-82
2023/08/26 04:22:25;;;;;;;14.50;8.30;;;;;;;25.57;44.76;94198.31;4958485;29;20063;-82
2023/08/26 04:24:50;;;;;;;11.73;8.35;;;;;;;25.39;45.51;94204.22;4958470;29;20046;-83
2023/08/26 04:27:19;;;;;;;12.85;8.30;;;;;;;25.17;46.10;94201.31;4941077;29;20349;-82
2023/08/26 04:29:44;;;;;;;13.95;8.43;;;;;;;25.03;46.67;94209.16;4958355;29;20108;-82
2023/08/26 04:32:09;;;;;;;14.73;8.63;;;;;;;25.04;46.33;94216.84;4941221;29;20353;-83
2023/08/26 04:34:35;;;;;;;11.82;8.27;;;;;;;24.71;48.88;94218.28;4944400;29;20035;-82
2023/08/26 04:37:00;;;;;;;16.98;8.73;;;;;;;24.41;48.90;94213.66;4939120;29;20060;-82
2023/08/26 04:39:26;;;;;;;15.27;8.77;;;;;;;23.97;51.21;94220.22;4921978;29;20159;-83
2023/08/26 04:41:51;;;;;;;14.38;8.98;;;;;;;23.91;51.56;94216.28;4941938;29;20039;-82
2023/08/26 04:44:17;;;;;;;13.20;8.50;;;;;;;23.83;52.07;94213.50;4910128;29;20031;-82
2023/08/26 04:46:43;;;;;;;12.75;8.98;;;;;;;23.85;52.86;94227.28;4942911;29;20462;-82
2023/08/26 04:49:08;;;;;;;14.48;9.57;;;;;;;23.30;53.41;94222.84;4942547;29;20083;-83
2023/08/26 04:51:34;;;;;;;15.88;8.43;;;;;;;23.26;54.65;94224.69;4925486;29;20028;-82
2023/08/26 04:54:00;;;;;;;12.65;8.38;;;;;;;23.46;53.59;94224.66;4925358;29;20031;-82
2023/08/26 04:56:26;;;;;;;12.98;8.80;;;;;;;23.51;52.72;94224.38;4925496;29;20035;-83
2023/08/26 04:58:51;;;;;;;15.88;10.25;;;;;;;23.37;53.97;94234.78;4925452;29;20035;-82
2023/08/26 05:01:17;;;;;;;15.07;8.77;;;;;;;23.34;54.71;94235.50;4925583;29;20034;-82
2023/08/26 05:03:42;;;;;;;18.13;9.05;;;;;;;23.27;56.81;94231.59;4942484;29;20050;-82
2023/08/26 05:06:07;;;;;;;16.00;9.00;;;;;;;23.25;55.67;94231.13;4909363;29;20130;-83
2023/08/26 05:08:33;;;;;;;16.13;9.02;;;;;;;23.33;57.46;94239.31;4942310;29;20039;-82
2023/08/26 05:10:58;;;;;;;19.25;9.93;;;;;;;23.04;59.53;94238.69;4925110;29;20426;-82
2023/08/26 05:13:25;;;;;;;12.35;9.30;;;;;;;23.14;58.90;94246.16;4942329;29;20104;-82
2023/08/26 05:15:51;;;;;;;13.05;9.82;;;;;;;23.21;61.70;94248.97;4925703;29;20426;-82
2023/08/26 05:18:18;;;;;;;13.60;9.68;;;;;;;23.33;60.58;94244.66;4925082;29;20087;-82
2023/08/26 05:20:44;;;;;;;12.70;9.13;;;;;;;23.41;60.83;94241.00;4909644;29;20346;-82
2023/08/26 05:23:11;;;;;;;12.35;8.60;;;;;;;23.42;60.52;94245.22;4925170;29;20099;-82
2023/08/26 05:25:38;;;;;;;18.45;10.10;;;;;;;23.67;58.21;94251.03;4925173;29;20039;-82
2023/08/26 05:28:06;;;;;;;16.00;9.13;;;;;;;23.60;57.43;94256.28;4909100;29;20032;-82
2023/08/26 05:30:33;;;;;;;11.50;9.43;;;;;;;23.37;58.69;94251.63;4925090;29;20349;-82
2023/08/26 05:32:58;;;;;;;18.27;9.43;;;;;;;23.63;58.05;94246.75;4942020;29;20043;-82
2023/08/26 05:35:23;;;;;;;16.73;9.98;;;;;;;23.53;59.69;94254.22;4924912;29;20405;-82
2023/08/26 05:37:49;;;;;;;14.23;9.27;;;;;;;23.63;61.28;94252.09;4908891;29;20031;-83
2023/08/26 05:40:15;;;;;;;13.40;8.75;;;;;;;23.86;62.13;94252.91;4924743;29;20043;-82
2023/08/26 05:42:41;;;;;;;12.90;9.02;;;;;;;23.65;62.80;94257.84;4924904;29;20063;-83
2023/08/26 05:45:07;;;;;;;14.30;8.73;;;;;;;23.42;68.39;94255.91;4941849;29;20043;-83
2023/08/26 05:47:33;;;;;;;16.85;8.77;;;;;;;23.78;70.48;94256.56;4908794;29;20035;-83
2023/08/26 05:49:59;;;;;;;13.43;8.63;;;;;;;23.98;68.28;94253.88;4908528;29;20138;-83
2023/08/26 05:52:24;;;;;;;14.02;8.65;;;;;;;24.12;66.31;94251.47;4941523;29;20434;-82
2023/08/26 05:54:50;;;;;;;12.32;8.85;;;;;;;24.28;68.74;94253.25;4938847;29;20156;-82
2023/08/26 05:57:15;;;;;;;13.23;8.93;;;;;;;24.38;66.63;94247.28;4943260;29;20141;-84
2023/08/26 05:59:41;;;;;;;12.48;9.00;;;;;;;24.26;68.77;94252.84;4926305;29;20039;-84
2023/08/26 06:02:06;;;;;;;13.27;9.20;;;;;;;24.59;65.83;94256.78;4940843;29;20027;-84
2023/08/26 06:04:32;;;;;;;11.65;9.30;;;;;;;24.28;84.88;94259.34;4943559;29;20053;-84
2023/08/26 06:06:57;;;;;;;12.50;8.93;;;;;;;24.21;86.68;94261.16;4943455;29;20441;-84
2023/08/26 06:09:23;;;;;;;13.30;9.80;;;;;;;24.49;81.73;94258.16;4943232;29;20086;-84
2023/08/26 06:11:48;;;;;;;13.32;9.45;;;;;;;24.70;79.66;94252.34;4927507;29;20039;-86
2023/08/26 06:14:14;;;;;;;14.77;9.43;;;;;;;24.84;79.75;94243.00;4927182;29;20035;-85
2023/08/26 06:16:39;;;;;;;13.77;8.65;;;;;;;24.96;68.95;94242.00;4943008;29;20126;-85
2023/08/26 06:19:05;;;;;;;14.00;8.75;;;;;;;24.85;66.00;94252.59;4943253;29;20066;-84
2023/08/26 06:21:30;;;;;;;12.48;9.38;;;;;;;25.15;67.93;94246.47;4943275;29;20046;-84
2023/08/26 06:23:55;;;;;;;12.38;8.45;;;;;;;25.25;66.09;94250.41;4927098;29;20063;-84
2023/08/26 06:26:21;;;;;;;12.85;9.20;;;;;;;25.31;63.91;94251.63;4960155;29;20123;-84
2023/08/26 06:28:46;;;;;;;11.07;8.73;;;;;;;25.53;65.66;94241.94;4959951;29;20046;-84
2023/08/26 06:31:12;;;;;;;11.55;8.48;;;;;;;25.69;65.89;94246.34;4927036;29;20065;-84
2023/08/26 06:33:37;;;;;;;12.48;8.23;;;;;;;25.83;64.22;94249.19;4959353;29;20035;-84
2023/08/26 06:36:05;;;;;;;14.02;8.85;;;;;;;25.72;72.35;94240.25;4942841;29;20035;-84
2023/08/26 06:38:30;;;;;;;11.93;8.57;;;;;;;25.86;70.62;94253.00;4935773;29;20370;-84
2023/08/26 06:40:56;;;;;;;11.98;9.27;;;;;;;26.03;66.20;94254.34;4939544;29;20050;-84
2023/08/26 06:43:22;;;;;;;12.07;8.55;;;;;;;26.21;72.58;94257.22;4939487;29;20051;-84
2023/08/26 06:45:48;;;;;;;13.85;8.98;;;;;;;26.35;70.97;94261.91;4939621;29;20438;-84
2023/08/26 06:48:14;;;;;;;13.32;8.55;;;;;;;26.17;64.10;94260.97;4942485;29;20046;-84
2023/08/26 06:50:40;;;;;;;11.32;8.90;;;;;;;25.97;69.42;94269.25;4942313;29;20069;-83
2023/08/26 06:53:06;;;;;;;17.67;9.30;;;;;;;26.13;66.97;94271.69;4959577;29;20426;-84
2023/08/26 06:55:31;;;;;;;16.23;9.60;;;;;;;26.03;64.31;94272.34;4941551;29;20433;-83
2023/08/26 06:57:57;;;;;;;12.77;8.98;;;;;;;26.32;63.11;94268.03;4926768;29;20054;-84
2023/08/26 07:00:22;;;;;;;12.32;8.23;;;;;;;26.56;70.14;94275.88;4942223;29;20046;-84
2023/08/26 07:02:47;;;;;;;15.02;8.55;;;;;;;26.81;66.47;94266.09;4959007;28;20487;-84
2023/08/26 07:05:13;;;;;;;10.82;8.30;;;;;;;26.99;59.87;94276.19;4942074;29;20046;-84
2023/08/26 07:07:39;;;;;;;11.57;9.27;;;;;;;26.93;69.27;94270.41;4937216;29;20047;-85
2023/08/26 07:10:05;;;;;;;12.80;8.48;;;;;;;27.19;58.35;94271.31;4959541;29;20042;-85
2023/08/26 07:12:31;;;;;;;13.38;8.30;;;;;;;27.33;65.72;94272.53;4941974;29;20039;-84
2023/08/26 07:14:56;;;;;;;16.33;8.93;;;;;;;27.32;79.17;94271.75;4941994;29;20429;-83
2023/08/26 07:17:22;;;;;;;12.55;8.73;;;;;;;27.55;75.93;94272.66;4941576;29;20365;-83
2023/08/26 07:19:48;;;;;;;11.27;9.25;;;;;;;27.41;69.37;94262.56;4957850;29;20041;-84
2023/08/26 07:22:13;;;;;;;12.60;8.38;;;;;;;27.10;85.23;94268.97;4958173;29;20039;-84
2023/08/26 07:24:38;;;;;;;14.93;8.90;;;;;;;27.34;79.29;94264.09;4943239;29;20047;-84
2023/08/26 07:27:04;;;;;;;14.55;9.45;;;;;;;27.23;88.08;94258.66;4954375;29;20086;-84
2023/08/26 07:29:37;;;;;;;18.35;12.82;;;;;;;27.12;84.62;94247.09;4941753;29;20031;-89
2023/08/26 07:32:03;;;;;;;11.60;8.18;;;;;;;27.50;77.04;94252.25;4941884;29;20050;-84
2023/08/26 07:34:31;;;;;;;14.70;9.32;;;;;;;27.43;78.58;94254.91;4941702;29;20424;-84
2023/08/26 07:36:57;;;;;;;17.38;10.35;;;;;;;27.38;78.21;94261.41;4937163;29;20086;-84
2023/08/26 07:39:24;;;;;;;14.02;9.15;;;;;;;27.51;72.90;94256.47;4914420;29;20517;-84
2023/08/26 07:41:49;;;;;;;11.90;8.77;;;;;;;27.53;76.52;94259.56;4957042;29;20035;-84
2023/08/26 07:44:15;;;;;;;13.63;8.80;;;;;;;27.60;69.03;94264.22;4941570;29;20096;-84
2023/08/26 07:46:40;;;;;;;11.45;8.13;;;;;;;27.71;67.78;94259.63;4941740;29;20038;-84
2023/08/26 07:49:06;;;;;;;12.30;8.68;;;;;;;27.72;68.49;94261.19;4958679;29;20119;-84
2023/08/26 07:51:31;;;;;;;12.68;9.07;;;;;;;27.65;72.47;94266.53;4925797;29;20043;-81
2023/08/26 07:53:57;;;;;;;13.45;9.55;;;;;;;27.66;79.13;94260.00;4941709;29;20355;-82
2023/08/26 07:56:26;;;;;;;15.50;8.23;;;;;;;27.96;72.47;94258.16;4941696;29;20368;-81
2023/08/26 07:58:51;;;;;;;9.55;7.70;;;;;;;28.05;81.94;94259.31;4925637;29;20035;-82
2023/08/26 08:01:16;;;;;;;14.65;8.68;;;;;;;28.20;67.04;94257.44;4941622;29;20038;-81
2023/08/26 08:03:42;;;;;;;11.50;8.77;;;;;;;28.01;79.42;94255.06;4925870;29;20046;-81
2023/08/26 08:06:07;;;;;;;16.90;9.40;;;;;;;28.14;79.17;94252.78;4958733;29;20397;-82
2023/08/26 08:08:32;;;;;;;15.55;8.60;;;;;;;28.44;68.67;94259.75;4941329;29;20043;-81
2023/08/26 08:10:58;;;;;;;13.48;8.63;;;;;;;28.62;66.32;94257.81;4958493;29;20508;-82
2023/08/26 08:13:23;;;;;;;13.90;8.95;;;;;;;28.83;59.17;94248.16;4958541;29;20039;-81
2023/08/26 08:15:49;;;;;;;12.38;8.40;;;;;;;28.67;82.11;94255.88;4959687;28;20109;-84
2023/08/26 08:18:14;;;;;;;14.68;8.48;;;;;;;28.97;66.57;94246.59;4945399;29;20380;-81
2023/08/26 08:20:40;;;;;;;14.52;8.40;;;;;;;28.92;57.44;94250.50;4945491;29;20089;-82
2023/08/26 08:23:05;;;;;;;11.48;8.30;;;;;;;29.08;54.55;94247.34;4962319;29;20081;-82
2023/08/26 08:25:31;;;;;;;11.55;7.97;;;;;;;29.04;52.71;94235.81;4962537;29;20043;-81
2023/08/26 08:27:56;;;;;;;12.23;8.32;;;;;;;28.92;56.17;94245.84;4945169;29;20047;-82
2023/08/26 08:30:22;;;;;;;11.15;8.65;;;;;;;29.25;67.94;94240.38;4944973;29;20038;-81
2023/08/26 08:32:48;;;;;;;11.15;8.45;;;;;;;29.34;61.14;94231.84;4962339;29;20027;-84
2023/08/26 08:35:14;;;;;;;13.82;9.70;;;;;;;29.35;60.73;94234.16;4945287;29;20042;-84
2023/08/26 08:37:39;;;;;;;14.75;8.80;;;;;;;29.40;57.59;94232.97;4962213;29;20041;-84
2023/08/26 08:40:06;;;;;;;16.38;8.82;;;;;;;29.37;56.51;94231.06;4945107;29;20052;-84
2023/08/26 08:42:33;;;;;;;13.65;8.15;;;;;;;29.57;54.84;94231.38;4944884;29;20031;-84
2023/08/26 08:44:59;;;;;;;11.70;8.23;;;;;;;29.69;51.45;94235.56;4944907;29;20028;-85
2023/08/26 08:47:25;;;;;;;18.27;9.45;;;;;;;29.80;46.65;94234.72;4961677;29;20034;-84
2023/08/26 08:49:51;;;;;;;13.43;10.10;;;;;;;29.94;45.87;94239.28;4944703;29;20035;-84
2023/08/26 08:52:17;;;;;;;10.93;8.85;;;;;;;30.07;53.41;94247.72;4913019;29;20315;-84
2023/08/26 08:54:44;;;;;;;11.07;9.10;;;;;;;30.02;47.61;94236.13;4933495;29;20476;-85
2023/08/26 08:57:12;;;;;;;13.35;9.38;;;;;;;30.14;46.37;94228.75;4944574;29;20054;-85
2023/08/26 08:59:38;;;;;;;15.52;10.48;;;;;;;29.76;39.11;94234.75;4944780;29;20038;-84
2023/08/26 09:02:05;;;;;;;14.75;9.60;;;;;;;30.03;42.88;94232.31;4944405;29;20031;-85
2023/08/26 09:04:31;;;;;;;13.43;8.73;;;;;;;30.15;42.90;94238.41;4944472;29;20031;-84
2023/08/26 09:06:57;;;;;;;12.00;8.23;;;;;;;30.35;40.46;94235.16;4943978;29;20047;-84
2023/08/26 09:09:22;;;;;;;11.10;8.57;;;;;;;30.44;39.83;94233.53;4942522;29;20410;-84
2023/08/26 09:11:49;;;;;;;16.25;9.15;;;;;;;30.24;37.78;94233.28;4944425;29;20451;-85
2023/08/26 09:14:15;;;;;;;13.88;8.75;;;;;;;30.53;39.46;94241.16;4944508;29;20046;-84
2023/08/26 09:16:42;;;;;;;17.13;8.30;;;;;;;30.67;39.51;94242.22;4944111;29;20035;-84
2023/08/26 09:19:09;;;;;;;10.30;8.23;;;;;;;30.87;38.95;94234.31;4961419;29;20342;-84
2023/08/26 09:21:42;;;;;;;12.20;8.68;;;;;;;30.79;37.30;94236.31;4944357;29;20046;-84
2023/08/26 09:24:17;;;;;;;10.95;7.88;;;;;;;30.84;37.30;94232.41;4928313;29;20098;-83
2023/08/26 09:26:44;;;;;;;8.98;7.40;;;;;;;30.98;38.44;94228.78;4943458;29;20412;-84
2023/08/26 09:29:20;;;;;;;11.05;7.75;;;;;;;31.11;38.82;94237.91;4927923;29;20035;-84
2023/08/26 09:31:46;;;;;;;13.65;8.88;;;;;;;31.03;37.58;94233.78;4961161;29;20463;-85
2023/08/26 09:34:13;;;;;;;12.52;8.40;;;;;;;31.13;37.66;94234.81;4944053;29;20449;-84
2023/08/26 09:36:39;;;;;;;11.93;8.70;;;;;;;31.15;38.22;94233.25;4944161;29;20035;-85
2023/08/26 09:39:11;;;;;;;10.23;8.15;;;;;;;31.21;42.38;94240.91;4960657;29;20122;-84
2023/08/26 09:41:40;;;;;;;11.75;8.10;;;;;;;31.36;38.42;94236.88;4944511;29;20142;-84
2023/08/26 09:44:07;;;;;;;13.88;8.38;;;;;;;31.42;39.65;94237.22;4942157;29;20035;-84
2023/08/26 09:46:37;;;;;;;11.32;7.57;;;;;;;31.03;37.80;94239.94;4934069;29;20047;-84
2023/08/26 09:49:03;;;;;;;11.27;8.32;;;;;;;31.34;36.63;94241.16;4918410;29;20137;-84
2023/08/26 09:51:30;;;;;;;19.05;9.35;;;;;;;30.22;38.77;94248.38;4953216;29;20521;-83
2023/08/26 09:53:56;;;;;;;13.40;8.55;;;;;;;29.84;39.15;94236.25;4936363;29;20027;-83
2023/08/26 09:56:23;;;;;;;15.05;8.32;;;;;;;30.30;40.31;94230.94;4943457;29;20095;-84
2023/08/26 09:58:49;;;;;;;12.48;8.40;;;;;;;30.62;38.55;94238.00;4943748;29;20472;-84
2023/08/26 10:01:14;;;;;;;15.25;7.40;;;;;;;30.97;34.13;94229.97;4937616;29;20123;-84
2023/08/26 10:03:42;;;;;;;10.27;6.35;;;;;;;31.39;32.96;94227.97;4954305;29;20070;-84
2023/08/26 10:06:09;;;;;;;8.93;6.93;;;;;;;31.10;30.48;94228.28;4960493;29;20437;-86
2023/08/26 10:08:36;;;;;;;14.40;6.72;;;;;;;31.27;31.92;94229.28;4940802;29;20050;-84
2023/08/26 10:11:03;;;;;;;7.25;6.22;;;;;;;31.45;30.33;94220.16;4912464;29;20325;-84
2023/08/26 10:13:29;;;;;;;10.63;6.18;;;;;;;31.37;31.91;94218.72;4948683;29;20042;-84
2023/08/26 10:15:57;;;;;;;7.53;5.68;;;;;;;31.49;29.29;94228.22;4942339;29;20440;-84
2023/08/26 10:18:43;;;;;;;6.53;4.97;;;;;;;31.68;29.59;94222.16;4933656;29;20091;-84
2023/08/26 10:21:09;;;;;;;7.10;4.88;;;;;;;30.95;27.29;94222.25;4924200;29;20119;-84
2023/08/26 10:23:36;;;;;;;5.25;4.18;;;;;;;31.24;27.13;94226.59;4939958;29;20429;-84
2023/08/26 10:26:01;;;;;;;7.63;4.65;;;;;;;31.25;27.74;94225.44;4940865;29;20038;-85
2023/08/26 10:28:28;;;;;;;6.45;4.90;;;;;;;31.30;28.06;94219.59;4940735;29;20432;-86
2023/08/26 10:30:57;;;;;;;6.60;4.63;;;;;;;31.51;28.57;94220.47;4949115;29;20038;-85
2023/08/26 10:33:22;;;;;;;6.75;4.80;;;;;;;31.29;28.52;94223.47;4942590;29;20031;-86
2023/08/26 10:36:22;;;;;;;7.50;4.63;;;;;;;31.62;26.49;94218.41;4942740;29;20034;-88
2023/08/26 10:39:18;;;;;;;5.63;4.47;;;;;;;31.37;28.39;94221.44;4940296;29;20074;-85
2023/08/26 10:42:23;;;;;;;8.55;5.10;;;;;;;31.66;28.52;94212.94;4926308;29;20031;-86
2023/08/26 10:44:54;;;;;;;7.97;5.07;;;;;;;31.65;28.37;94211.41;4882551;29;20362;-84
2023/08/26 10:47:39;;;;;;;12.98;6.03;;;;;;;31.18;27.65;94210.78;4851149;29;20139;-82
2023/08/26 10:50:25;;;;;;;7.00;5.60;;;;;;;31.38;26.98;94209.44;4894501;29;20042;-86
2023/08/26 10:53:15;;;;;;;8.00;4.85;;;;;;;31.54;28.39;94206.13;4924130;29;20039;-85
2023/08/26 10:55:44;;;;;;;7.10;5.32;;;;;;;31.79;27.94;94197.69;4923584;29;20047;-88
2023/08/26 10:58:18;;;;;;;10.57;5.15;;;;;;;31.61;27.54;94200.63;4924253;29;20350;-86
2023/08/26 11:00:52;;;;;;;11.48;5.10;;;;;;;31.86;28.46;94189.44;4923471;29;20027;-89
2023/08/26 11:03:19;;;;;;;9.93;4.60;;;;;;;31.37;28.31;94187.00;4907896;29;20028;-90
2023/08/26 11:05:46;;;;;;;9.88;5.30;;;;;;;31.74;29.57;94200.81;4940456;29;20042;-87
2023/08/26 11:08:13;;;;;;;10.13;5.00;;;;;;;31.65;28.44;94192.44;4923476;29;20077;-90
2023/08/26 11:10:39;;;;;;;6.65;4.82;;;;;;;31.96;28.53;94189.72;4923429;29;20490;-90
2023/08/26 11:13:05;;;;;;;7.72;5.10;;;;;;;32.03;28.14;94195.00;4939167;29;20036;-91
2023/08/26 11:15:34;;;;;;;6.88;4.72;;;;;;;31.74;28.08;94185.34;4921982;29;20050;-88
2023/08/26 11:18:00;;;;;;;6.72;4.35;;;;;;;31.52;28.97;94181.41;4942183;29;20027;-90
2023/08/26 11:20:25;;;;;;;6.47;4.38;;;;;;;31.58;29.33;94191.38;4942294;29;20061;-90
2023/08/26 11:22:51;;;;;;;7.35;4.20;;;;;;;32.06;30.22;94194.16;4959366;29;20319;-90